Latest METARs, TAFs and NOTAMs for TTPP


---------------------------------------------------------------------------
	(OBSERVATIONS)
TTPP 291700Z 12015KT 9999 VCSH BKN020 33/21 Q1014 NOSIG RMK SHWRS
    N NNE NE=
TTPP 291600Z 09018KT 9999 VCSH BKN018 34/22 Q1015 NOSIG RMK SHWRS
    N NNW SSW=
TTPP 291500Z 10015KT 9999 VCSH BKN018 33/22 Q1015 NOSIG RMK SHWRS
    N NE SE=
---------------------------------------------------------------------------
	(TERMINAL AREA FORECAST)
TTPP 291600Z 2918/3018 10015KT 9999 SCT018
    BECMG 3000/3002 09005KT
    PROB40 TEMPO 3008/3013 7000 SHRA BKN015
    BECMG 3012/3014 10015KT=
---------------------------------------------------------------------------
	(NOTAMS)


TTPP A0231/17 INSTRUMENT APPROACH PROCEDURE "NDB RWY10" NOT AVBL.
    24 FEB 23:50 UNTIL 24 MAY 23:50 ESTIMATED

TTPP A0232/17 INSTRUMENT APPROACH PROCEDURE "NDB/ILS RWY10" NOT
    AVBL. 24 FEB 23:50 2017 UNTIL 24 MAY 23:50 2017 ESTIMATED.
    CREATED: 24 FEB 23:50 2017

TTPP A0330/17 ALL AIRCRAFT TO BE TOWED IN AND TOWED OUT OF GATES
    1 AND 2 ON THE SOUTH APRON. 17 MAR 00:10 2017 UNTIL 16 JUN
    22:00 2017. CREATED: 17 MAR 00:10 2017

TTPP A0349/17 MODEL ACFT DISPLAY AT FREDERICK SETTLEMENT WITHIN
    A RADIUS OF 1KM CENTRED ON 103538N0612337W. CTN ADV. SFC
    - 400FT, SR-SS, 20 MAR 16:10 2017 UNTIL 20 JUN 22:00 2017
    ESTIMATED. CREATED: 20 MAR 16:15 2017

TTPP A0575/17 "IPOS" ILS GLIDE-PATH 333.20MHZ RWY 10 UNSERVICEABLE
    DUE MAINTENANCE. 01 MAY 12:00 2017 UNTIL 03 MAY 20:00 2017.
    CREATED: 28 APR 14:39 2017

TTPP F0016/07 [DEFENSE ENERGY SUPPORT CENTER ADVISORY] FUEL AVAILABILITY
    NOT AVAILABLE: CONTRACTOR PLACED ON QUALITY HOLD DUE TO NONCOMPLIANCE
    OF SAMPLE SUBMISSION. 12 JUL 20:18 2020 UNTIL 01 AUG 21:18
    2020

---------------------------------------------------------------------------